sensor_id;sensor_type;location;lat;lon;timestamp;temperature;humidity
43607;DHT22;29197;44.788;10.366;2022-09-09T00:00:26;23.70;99.90
43607;DHT22;29197;44.788;10.366;2022-09-09T00:03:18;23.80;99.90
43607;DHT22;29197;44.788;10.366;2022-09-09T00:06:14;23.80;99.90
43607;DHT22;29197;44.788;10.366;2022-09-09T00:09:12;23.80;99.90
43607;DHT22;29197;44.788;10.366;2022-09-09T00:12:04;23.60;99.90
43607;DHT22;29197;44.788;10.366;2022-09-09T00:15:02;23.60;99.90
43607;DHT22;29197;44.788;10.366;2022-09-09T00:17:58;23.50;99.90
43607;DHT22;29197;44.788;10.366;2022-09-09T00:20:53;23.60;99.90
43607;DHT22;29197;44.788;10.366;2022-09-09T00:23:50;23.40;99.90
43607;DHT22;29197;44.788;10.366;2022-09-09T00:26:42;23.30;99.90
43607;DHT22;29197;44.788;10.366;2022-09-09T00:29:36;23.30;99.90
43607;DHT22;29197;44.788;10.366;2022-09-09T00:32:29;23.20;99.90
43607;DHT22;29197;44.788;10.366;2022-09-09T00:35:23;23.10;99.90
43607;DHT22;29197;44.788;10.366;2022-09-09T00:38:15;23.20;99.90
43607;DHT22;29197;44.788;10.366;2022-09-09T00:41:11;23.10;99.90
43607;DHT22;29197;44.788;10.366;2022-09-09T00:44:18;23.10;99.90
43607;DHT22;29197;44.788;10.366;2022-09-09T00:50:38;23.10;99.90
43607;DHT22;29197;44.788;10.366;2022-09-09T00:53:38;23.20;99.90
43607;DHT22;29197;44.788;10.366;2022-09-09T00:56:36;23.10;99.90
43607;DHT22;29197;44.788;10.366;2022-09-09T00:59:35;23.10;99.90
43607;DHT22;29197;44.788;10.366;2022-09-09T01:02:28;23.20;99.90
43607;DHT22;29197;44.788;10.366;2022-09-09T01:05:23;23.30;99.90
43607;DHT22;29197;44.788;10.366;2022-09-09T01:08:28;23.30;99.90
43607;DHT22;29197;44.788;10.366;2022-09-09T01:11:22;23.30;99.90
43607;DHT22;29197;44.788;10.366;2022-09-09T01:14:24;23.10;99.90
43607;DHT22;29197;44.788;10.366;2022-09-09T01:17:21;23.10;99.90
43607;DHT22;29197;44.788;10.366;2022-09-09T01:23:16;22.90;99.90
43607;DHT22;29197;44.788;10.366;2022-09-09T01:26:23;22.90;99.90
43607;DHT22;29197;44.788;10.366;2022-09-09T01:29:15;22.90;99.90
43607;DHT22;29197;44.788;10.366;2022-09-09T01:32:38;22.90;99.90
43607;DHT22;29197;44.788;10.366;2022-09-09T01:35:35;23.00;99.90
43607;DHT22;29197;44.788;10.366;2022-09-09T01:38:26;23.10;99.90
43607;DHT22;29197;44.788;10.366;2022-09-09T01:41:16;23.20;99.90
43607;DHT22;29197;44.788;10.366;2022-09-09T01:44:08;23.30;99.90
43607;DHT22;29197;44.788;10.366;2022-09-09T01:46:58;23.20;99.90
43607;DHT22;29197;44.788;10.366;2022-09-09T01:49:47;23.20;99.90
43607;DHT22;29197;44.788;10.366;2022-09-09T01:55:29;22.90;99.90
43607;DHT22;29197;44.788;10.366;2022-09-09T02:01:26;22.70;99.90
43607;DHT22;29197;44.788;10.366;2022-09-09T02:04:25;22.60;99.90
43607;DHT22;29197;44.788;10.366;2022-09-09T02:07:29;22.60;99.90
43607;DHT22;29197;44.788;10.366;2022-09-09T02:10:22;22.60;99.90
43607;DHT22;29197;44.788;10.366;2022-09-09T02:13:15;22.60;99.90
43607;DHT22;29197;44.788;10.366;2022-09-09T02:16:07;22.60;99.90
43607;DHT22;29197;44.788;10.366;2022-09-09T02:19:02;22.60;99.90
43607;DHT22;29197;44.788;10.366;2022-09-09T02:21:56;22.50;99.90
43607;DHT22;29197;44.788;10.366;2022-09-09T02:24:47;22.40;99.90
43607;DHT22;29197;44.788;10.366;2022-09-09T02:27:38;22.40;99.90
43607;DHT22;29197;44.788;10.366;2022-09-09T02:30:29;22.20;99.90
43607;DHT22;29197;44.788;10.366;2022-09-09T02:33:19;22.10;99.90
43607;DHT22;29197;44.788;10.366;2022-09-09T02:36:12;22.10;99.90
43607;DHT22;29197;44.788;10.366;2022-09-09T02:39:06;22.10;99.90
43607;DHT22;29197;44.788;10.366;2022-09-09T02:41:56;22.20;99.90
43607;DHT22;29197;44.788;10.366;2022-09-09T02:44:45;22.40;99.90
43607;DHT22;29197;44.788;10.366;2022-09-09T02:47:40;22.40;99.90
43607;DHT22;29197;44.788;10.366;2022-09-09T02:50:37;22.30;99.90
43607;DHT22;29197;44.788;10.366;2022-09-09T02:53:37;22.40;99.90
43607;DHT22;29197;44.788;10.366;2022-09-09T02:56:30;22.40;99.90
43607;DHT22;29197;44.788;10.366;2022-09-09T02:59:21;22.40;99.90
43607;DHT22;29197;44.788;10.366;2022-09-09T03:02:11;22.50;99.90
43607;DHT22;29197;44.788;10.366;2022-09-09T03:05:01;22.40;99.90
43607;DHT22;29197;44.788;10.366;2022-09-09T03:07:51;22.10;99.90
43607;DHT22;29197;44.788;10.366;2022-09-09T03:10:41;22.10;99.90
43607;DHT22;29197;44.788;10.366;2022-09-09T03:13:31;22.30;99.90
43607;DHT22;29197;44.788;10.366;2022-09-09T03:16:21;22.30;99.90
43607;DHT22;29197;44.788;10.366;2022-09-09T03:19:11;22.30;99.90
43607;DHT22;29197;44.788;10.366;2022-09-09T03:21:59;22.30;99.90
43607;DHT22;29197;44.788;10.366;2022-09-09T03:24:49;21.90;99.90
43607;DHT22;29197;44.788;10.366;2022-09-09T03:27:39;21.80;99.90
43607;DHT22;29197;44.788;10.366;2022-09-09T03:33:18;21.90;99.90
43607;DHT22;29197;44.788;10.366;2022-09-09T03:36:07;21.80;99.90
43607;DHT22;29197;44.788;10.366;2022-09-09T03:38:58;21.80;99.90
43607;DHT22;29197;44.788;10.366;2022-09-09T03:41:47;21.80;99.90
43607;DHT22;29197;44.788;10.366;2022-09-09T03:44:38;22.00;99.90
43607;DHT22;29197;44.788;10.366;2022-09-09T03:47:27;22.00;99.90
43607;DHT22;29197;44.788;10.366;2022-09-09T03:50:16;22.00;99.90
43607;DHT22;29197;44.788;10.366;2022-09-09T03:53:05;22.10;99.90
43607;DHT22;29197;44.788;10.366;2022-09-09T03:55:56;22.10;99.90
43607;DHT22;29197;44.788;10.366;2022-09-09T03:58:47;22.00;99.90
43607;DHT22;29197;44.788;10.366;2022-09-09T04:01:37;22.00;99.90
43607;DHT22;29197;44.788;10.366;2022-09-09T04:04:27;22.00;99.90
43607;DHT22;29197;44.788;10.366;2022-09-09T04:07:16;22.00;99.90
43607;DHT22;29197;44.788;10.366;2022-09-09T04:10:06;22.00;99.90
43607;DHT22;29197;44.788;10.366;2022-09-09T04:12:56;22.00;99.90
43607;DHT22;29197;44.788;10.366;2022-09-09T04:15:50;22.00;99.90
43607;DHT22;29197;44.788;10.366;2022-09-09T04:18:42;22.00;99.90
43607;DHT22;29197;44.788;10.366;2022-09-09T04:21:30;21.90;99.90
43607;DHT22;29197;44.788;10.366;2022-09-09T04:24:20;21.90;99.90
43607;DHT22;29197;44.788;10.366;2022-09-09T04:27:09;22.00;99.90
43607;DHT22;29197;44.788;10.366;2022-09-09T04:29:58;22.00;99.90
43607;DHT22;29197;44.788;10.366;2022-09-09T04:32:48;21.90;99.90
43607;DHT22;29197;44.788;10.366;2022-09-09T04:35:38;21.90;99.90
43607;DHT22;29197;44.788;10.366;2022-09-09T04:38:28;21.90;99.90
43607;DHT22;29197;44.788;10.366;2022-09-09T04:41:18;22.00;99.90
43607;DHT22;29197;44.788;10.366;2022-09-09T04:44:08;21.90;99.90
43607;DHT22;29197;44.788;10.366;2022-09-09T04:46:57;21.70;99.90
43607;DHT22;29197;44.788;10.366;2022-09-09T04:49:46;21.50;99.90
43607;DHT22;29197;44.788;10.366;2022-09-09T04:52:37;21.40;99.90
43607;DHT22;29197;44.788;10.366;2022-09-09T04:55:27;21.30;99.90
43607;DHT22;29197;44.788;10.366;2022-09-09T04:58:16;21.40;99.90
43607;DHT22;29197;44.788;10.366;2022-09-09T05:01:06;21.60;99.90
43607;DHT22;29197;44.788;10.366;2022-09-09T05:03:56;21.70;99.90
43607;DHT22;29197;44.788;10.366;2022-09-09T05:06:45;21.80;99.90
43607;DHT22;29197;44.788;10.366;2022-09-09T05:09:36;21.90;99.90
43607;DHT22;29197;44.788;10.366;2022-09-09T05:12:25;22.00;99.90
43607;DHT22;29197;44.788;10.366;2022-09-09T05:15:14;21.90;99.90
43607;DHT22;29197;44.788;10.366;2022-09-09T05:18:03;21.90;99.90
43607;DHT22;29197;44.788;10.366;2022-09-09T05:20:56;21.60;99.90
43607;DHT22;29197;44.788;10.366;2022-09-09T05:23:47;21.50;99.90
43607;DHT22;29197;44.788;10.366;2022-09-09T05:26:37;21.60;99.90
43607;DHT22;29197;44.788;10.366;2022-09-09T05:29:26;21.60;99.90
43607;DHT22;29197;44.788;10.366;2022-09-09T05:32:15;21.40;99.90
43607;DHT22;29197;44.788;10.366;2022-09-09T05:35:05;21.40;99.90
43607;DHT22;29197;44.788;10.366;2022-09-09T05:37:59;21.40;99.90
43607;DHT22;29197;44.788;10.366;2022-09-09T05:40:49;21.50;99.90
43607;DHT22;29197;44.788;10.366;2022-09-09T05:43:39;21.60;99.90
43607;DHT22;29197;44.788;10.366;2022-09-09T05:46:29;21.80;99.90
43607;DHT22;29197;44.788;10.366;2022-09-09T05:49:19;22.00;99.90
43607;DHT22;29197;44.788;10.366;2022-09-09T05:52:09;22.10;99.90
43607;DHT22;29197;44.788;10.366;2022-09-09T05:54:58;22.30;99.90
43607;DHT22;29197;44.788;10.366;2022-09-09T05:57:48;22.40;99.90
43607;DHT22;29197;44.788;10.366;2022-09-09T06:00:40;22.50;99.90
43607;DHT22;29197;44.788;10.366;2022-09-09T06:03:30;22.50;99.90
43607;DHT22;29197;44.788;10.366;2022-09-09T06:06:21;22.60;99.90
43607;DHT22;29197;44.788;10.366;2022-09-09T06:09:11;22.60;99.90
43607;DHT22;29197;44.788;10.366;2022-09-09T06:12:01;22.70;99.90
43607;DHT22;29197;44.788;10.366;2022-09-09T06:14:50;22.70;99.90
43607;DHT22;29197;44.788;10.366;2022-09-09T06:17:41;22.70;99.90
43607;DHT22;29197;44.788;10.366;2022-09-09T06:20:31;22.80;99.90
43607;DHT22;29197;44.788;10.366;2022-09-09T06:25:45;22.90;99.90
43607;DHT22;29197;44.788;10.366;2022-09-09T06:28:36;22.90;99.90
43607;DHT22;29197;44.788;10.366;2022-09-09T06:31:26;22.80;99.90
43607;DHT22;29197;44.788;10.366;2022-09-09T06:34:19;22.90;99.90
43607;DHT22;29197;44.788;10.366;2022-09-09T06:37:09;22.90;99.90
43607;DHT22;29197;44.788;10.366;2022-09-09T06:39:59;22.90;99.90
43607;DHT22;29197;44.788;10.366;2022-09-09T06:42:48;23.00;99.90
43607;DHT22;29197;44.788;10.366;2022-09-09T06:45:37;23.10;99.90
43607;DHT22;29197;44.788;10.366;2022-09-09T06:54:09;23.30;99.90
43607;DHT22;29197;44.788;10.366;2022-09-09T06:56:58;23.30;99.90
43607;DHT22;29197;44.788;10.366;2022-09-09T07:00:08;23.30;99.90
43607;DHT22;29197;44.788;10.366;2022-09-09T07:02:57;23.30;99.90
43607;DHT22;29197;44.788;10.366;2022-09-09T07:05:54;23.30;99.90
43607;DHT22;29197;44.788;10.366;2022-09-09T07:08:48;23.30;99.90
43607;DHT22;29197;44.788;10.366;2022-09-09T07:11:44;23.40;99.90
43607;DHT22;29197;44.788;10.366;2022-09-09T07:14:33;23.40;99.90
43607;DHT22;29197;44.788;10.366;2022-09-09T07:17:24;23.50;99.90
43607;DHT22;29197;44.788;10.366;2022-09-09T07:20:14;23.50;99.90
43607;DHT22;29197;44.788;10.366;2022-09-09T07:23:03;23.60;99.90
43607;DHT22;29197;44.788;10.366;2022-09-09T07:25:54;23.60;99.90
43607;DHT22;29197;44.788;10.366;2022-09-09T07:28:43;23.70;99.90
43607;DHT22;29197;44.788;10.366;2022-09-09T07:31:33;23.70;99.90
43607;DHT22;29197;44.788;10.366;2022-09-09T07:34:23;23.80;99.90
43607;DHT22;29197;44.788;10.366;2022-09-09T07:37:12;23.90;99.90
43607;DHT22;29197;44.788;10.366;2022-09-09T07:42:53;24.00;99.90
43607;DHT22;29197;44.788;10.366;2022-09-09T07:45:42;24.00;99.90
43607;DHT22;29197;44.788;10.366;2022-09-09T07:48:31;24.10;99.90
43607;DHT22;29197;44.788;10.366;2022-09-09T07:51:22;24.10;99.90
43607;DHT22;29197;44.788;10.366;2022-09-09T07:54:14;24.10;99.90
43607;DHT22;29197;44.788;10.366;2022-09-09T07:57:07;24.20;99.90
43607;DHT22;29197;44.788;10.366;2022-09-09T07:59:57;24.20;99.90
43607;DHT22;29197;44.788;10.366;2022-09-09T08:02:46;24.30;99.90
43607;DHT22;29197;44.788;10.366;2022-09-09T08:05:36;24.30;99.90
43607;DHT22;29197;44.788;10.366;2022-09-09T08:08:27;24.40;99.90
43607;DHT22;29197;44.788;10.366;2022-09-09T08:11:16;24.40;99.90
43607;DHT22;29197;44.788;10.366;2022-09-09T08:14:05;24.30;99.90
43607;DHT22;29197;44.788;10.366;2022-09-09T08:16:57;24.30;99.90
43607;DHT22;29197;44.788;10.366;2022-09-09T08:19:47;24.40;99.90
43607;DHT22;29197;44.788;10.366;2022-09-09T08:22:35;24.40;99.90
43607;DHT22;29197;44.788;10.366;2022-09-09T08:25:25;24.40;99.90
43607;DHT22;29197;44.788;10.366;2022-09-09T08:28:14;24.40;99.90
43607;DHT22;29197;44.788;10.366;2022-09-09T08:31:08;24.50;99.90
43607;DHT22;29197;44.788;10.366;2022-09-09T08:34:00;24.50;99.90
43607;DHT22;29197;44.788;10.366;2022-09-09T08:36:51;24.50;99.90
43607;DHT22;29197;44.788;10.366;2022-09-09T08:39:40;24.40;99.90
43607;DHT22;29197;44.788;10.366;2022-09-09T08:42:38;24.40;99.90
43607;DHT22;29197;44.788;10.366;2022-09-09T08:45:32;24.30;99.90
43607;DHT22;29197;44.788;10.366;2022-09-09T08:48:41;24.30;99.90
43607;DHT22;29197;44.788;10.366;2022-09-09T08:51:34;24.30;99.90
43607;DHT22;29197;44.788;10.366;2022-09-09T08:54:23;24.30;99.90
43607;DHT22;29197;44.788;10.366;2022-09-09T08:57:34;24.40;99.90
43607;DHT22;29197;44.788;10.366;2022-09-09T09:00:25;24.40;99.90
43607;DHT22;29197;44.788;10.366;2022-09-09T09:03:24;24.40;99.90
43607;DHT22;29197;44.788;10.366;2022-09-09T09:06:26;24.50;99.90
43607;DHT22;29197;44.788;10.366;2022-09-09T09:09:23;24.50;99.90
43607;DHT22;29197;44.788;10.366;2022-09-09T09:12:17;24.60;99.90
43607;DHT22;29197;44.788;10.366;2022-09-09T09:15:11;24.70;99.90
43607;DHT22;29197;44.788;10.366;2022-09-09T09:18:03;24.80;99.90
43607;DHT22;29197;44.788;10.366;2022-09-09T09:20:58;24.90;99.90
43607;DHT22;29197;44.788;10.366;2022-09-09T09:23:56;24.90;99.90
43607;DHT22;29197;44.788;10.366;2022-09-09T09:26:47;24.90;99.90
43607;DHT22;29197;44.788;10.366;2022-09-09T09:29:35;24.90;99.90
43607;DHT22;29197;44.788;10.366;2022-09-09T09:32:51;25.00;99.90
43607;DHT22;29197;44.788;10.366;2022-09-09T09:35:40;25.10;99.90
43607;DHT22;29197;44.788;10.366;2022-09-09T09:38:30;25.20;99.90
43607;DHT22;29197;44.788;10.366;2022-09-09T09:41:41;25.30;99.90
43607;DHT22;29197;44.788;10.366;2022-09-09T09:44:32;25.30;99.90
43607;DHT22;29197;44.788;10.366;2022-09-09T09:47:24;25.40;99.90
43607;DHT22;29197;44.788;10.366;2022-09-09T09:50:18;25.40;99.90
43607;DHT22;29197;44.788;10.366;2022-09-09T09:53:20;25.50;99.90
43607;DHT22;29197;44.788;10.366;2022-09-09T09:56:11;25.70;99.90
43607;DHT22;29197;44.788;10.366;2022-09-09T10:02:20;25.80;99.90
43607;DHT22;29197;44.788;10.366;2022-09-09T10:05:16;25.90;99.90
43607;DHT22;29197;44.788;10.366;2022-09-09T10:08:11;26.00;99.90
43607;DHT22;29197;44.788;10.366;2022-09-09T10:14:15;26.20;99.90
43607;DHT22;29197;44.788;10.366;2022-09-09T10:17:18;26.30;99.90
43607;DHT22;29197;44.788;10.366;2022-09-09T10:20:18;26.40;99.90
43607;DHT22;29197;44.788;10.366;2022-09-09T10:23:19;26.50;99.90
43607;DHT22;29197;44.788;10.366;2022-09-09T10:26:28;26.60;99.90
43607;DHT22;29197;44.788;10.366;2022-09-09T10:29:40;26.80;99.90
43607;DHT22;29197;44.788;10.366;2022-09-09T10:32:45;26.90;99.90
43607;DHT22;29197;44.788;10.366;2022-09-09T10:35:37;27.00;99.90
43607;DHT22;29197;44.788;10.366;2022-09-09T10:38:32;27.10;99.90
43607;DHT22;29197;44.788;10.366;2022-09-09T10:41:37;27.10;99.90
43607;DHT22;29197;44.788;10.366;2022-09-09T10:44:47;27.10;99.90
43607;DHT22;29197;44.788;10.366;2022-09-09T10:48:04;27.00;99.90
43607;DHT22;29197;44.788;10.366;2022-09-09T10:51:02;27.10;99.90
43607;DHT22;29197;44.788;10.366;2022-09-09T10:54:11;27.10;99.90
43607;DHT22;29197;44.788;10.366;2022-09-09T10:57:04;27.20;99.90
43607;DHT22;29197;44.788;10.366;2022-09-09T10:59:59;27.40;99.90
43607;DHT22;29197;44.788;10.366;2022-09-09T11:02:55;27.50;99.90
43607;DHT22;29197;44.788;10.366;2022-09-09T11:05:47;27.70;99.90
43607;DHT22;29197;44.788;10.366;2022-09-09T11:08:39;27.70;99.90
43607;DHT22;29197;44.788;10.366;2022-09-09T11:11:32;27.90;99.90
43607;DHT22;29197;44.788;10.366;2022-09-09T11:14:28;28.00;99.90
43607;DHT22;29197;44.788;10.366;2022-09-09T11:17:26;28.10;99.90
43607;DHT22;29197;44.788;10.366;2022-09-09T11:20:17;28.30;99.90
43607;DHT22;29197;44.788;10.366;2022-09-09T11:23:13;28.40;99.90
43607;DHT22;29197;44.788;10.366;2022-09-09T11:26:04;28.70;99.90
43607;DHT22;29197;44.788;10.366;2022-09-09T11:29:08;28.90;99.90
43607;DHT22;29197;44.788;10.366;2022-09-09T11:32:14;29.10;99.90
43607;DHT22;29197;44.788;10.366;2022-09-09T11:35:21;29.20;99.90
43607;DHT22;29197;44.788;10.366;2022-09-09T11:38:25;29.30;99.90
43607;DHT22;29197;44.788;10.366;2022-09-09T11:41:15;29.50;99.90
43607;DHT22;29197;44.788;10.366;2022-09-09T11:47:00;29.90;99.90
43607;DHT22;29197;44.788;10.366;2022-09-09T11:52:42;29.90;99.90
43607;DHT22;29197;44.788;10.366;2022-09-09T11:55:34;29.90;99.90
43607;DHT22;29197;44.788;10.366;2022-09-09T11:58:24;30.00;99.90
43607;DHT22;29197;44.788;10.366;2022-09-09T12:01:15;30.10;99.90
43607;DHT22;29197;44.788;10.366;2022-09-09T12:04:31;30.30;99.90
43607;DHT22;29197;44.788;10.366;2022-09-09T12:07:28;30.60;99.90
43607;DHT22;29197;44.788;10.366;2022-09-09T12:39:35;31.90;99.90
43607;DHT22;29197;44.788;10.366;2022-09-09T12:42:26;31.90;99.90
43607;DHT22;29197;44.788;10.366;2022-09-09T12:45:19;31.90;99.90
43607;DHT22;29197;44.788;10.366;2022-09-09T12:48:10;31.90;99.90
43607;DHT22;29197;44.788;10.366;2022-09-09T12:51:04;31.50;99.90
43607;DHT22;29197;44.788;10.366;2022-09-09T12:53:54;31.30;99.90
43607;DHT22;29197;44.788;10.366;2022-09-09T12:56:46;31.20;99.90
43607;DHT22;29197;44.788;10.366;2022-09-09T12:59:37;31.20;99.90
43607;DHT22;29197;44.788;10.366;2022-09-09T13:02:29;31.20;99.90
43607;DHT22;29197;44.788;10.366;2022-09-09T13:08:11;31.10;99.90
43607;DHT22;29197;44.788;10.366;2022-09-09T13:16:53;29.80;99.90
43607;DHT22;29197;44.788;10.366;2022-09-09T13:19:44;29.40;99.90
43607;DHT22;29197;44.788;10.366;2022-09-09T13:22:35;29.20;99.90
43607;DHT22;29197;44.788;10.366;2022-09-09T13:25:26;29.10;99.90
43607;DHT22;29197;44.788;10.366;2022-09-09T13:28:21;29.30;99.90
43607;DHT22;29197;44.788;10.366;2022-09-09T13:34:13;30.30;99.90
43607;DHT22;29197;44.788;10.366;2022-09-09T13:39:56;31.10;99.90
43607;DHT22;29197;44.788;10.366;2022-09-09T13:42:45;31.40;99.90
43607;DHT22;29197;44.788;10.366;2022-09-09T13:45:35;31.70;99.90
43607;DHT22;29197;44.788;10.366;2022-09-09T13:48:25;32.00;99.90
43607;DHT22;29197;44.788;10.366;2022-09-09T13:54:18;32.40;99.90
43607;DHT22;29197;44.788;10.366;2022-09-09T13:57:15;32.50;99.90
43607;DHT22;29197;44.788;10.366;2022-09-09T14:05:45;32.70;99.90
43607;DHT22;29197;44.788;10.366;2022-09-09T14:08:34;32.80;99.90
43607;DHT22;29197;44.788;10.366;2022-09-09T14:11:26;32.80;99.90
43607;DHT22;29197;44.788;10.366;2022-09-09T14:14:15;32.80;99.90
43607;DHT22;29197;44.788;10.366;2022-09-09T14:17:04;32.90;99.90
43607;DHT22;29197;44.788;10.366;2022-09-09T14:19:54;32.90;99.90
43607;DHT22;29197;44.788;10.366;2022-09-09T14:22:43;33.00;99.90
43607;DHT22;29197;44.788;10.366;2022-09-09T14:25:32;32.90;99.90
43607;DHT22;29197;44.788;10.366;2022-09-09T14:28:23;32.80;99.90
43607;DHT22;29197;44.788;10.366;2022-09-09T14:31:32;32.70;99.90
43607;DHT22;29197;44.788;10.366;2022-09-09T14:34:21;32.70;99.90
43607;DHT22;29197;44.788;10.366;2022-09-09T14:37:09;32.60;99.90
43607;DHT22;29197;44.788;10.366;2022-09-09T14:39:58;32.40;99.90
43607;DHT22;29197;44.788;10.366;2022-09-09T14:45:37;32.30;99.90
43607;DHT22;29197;44.788;10.366;2022-09-09T14:48:26;32.00;99.90
43607;DHT22;29197;44.788;10.366;2022-09-09T14:51:16;31.90;99.90
43607;DHT22;29197;44.788;10.366;2022-09-09T14:54:05;31.80;99.90
43607;DHT22;29197;44.788;10.366;2022-09-09T14:56:53;31.80;99.90
43607;DHT22;29197;44.788;10.366;2022-09-09T14:59:43;31.70;99.90
43607;DHT22;29197;44.788;10.366;2022-09-09T15:02:34;31.70;99.90
43607;DHT22;29197;44.788;10.366;2022-09-09T15:05:23;31.70;99.90
43607;DHT22;29197;44.788;10.366;2022-09-09T15:08:15;31.60;99.90
43607;DHT22;29197;44.788;10.366;2022-09-09T15:11:06;31.30;99.90
43607;DHT22;29197;44.788;10.366;2022-09-09T15:13:56;30.90;99.90
43607;DHT22;29197;44.788;10.366;2022-09-09T15:16:46;30.70;99.90
43607;DHT22;29197;44.788;10.366;2022-09-09T15:19:36;30.80;99.90
43607;DHT22;29197;44.788;10.366;2022-09-09T15:22:25;30.80;99.90
43607;DHT22;29197;44.788;10.366;2022-09-09T15:39:42;30.00;99.90
43607;DHT22;29197;44.788;10.366;2022-09-09T15:42:32;29.90;99.90
43607;DHT22;29197;44.788;10.366;2022-09-09T15:45:21;29.90;99.90
43607;DHT22;29197;44.788;10.366;2022-09-09T15:48:10;30.00;99.90
43607;DHT22;29197;44.788;10.366;2022-09-09T15:51:01;30.10;99.90
43607;DHT22;29197;44.788;10.366;2022-09-09T15:54:12;30.10;99.90
43607;DHT22;29197;44.788;10.366;2022-09-09T15:57:04;30.00;99.90
43607;DHT22;29197;44.788;10.366;2022-09-09T15:59:54;30.00;99.90
43607;DHT22;29197;44.788;10.366;2022-09-09T16:02:43;30.00;99.90
43607;DHT22;29197;44.788;10.366;2022-09-09T16:05:33;29.90;99.90
43607;DHT22;29197;44.788;10.366;2022-09-09T16:08:22;29.80;99.90
43607;DHT22;29197;44.788;10.366;2022-09-09T16:14:04;29.60;99.90
43607;DHT22;29197;44.788;10.366;2022-09-09T16:16:54;29.50;99.90
43607;DHT22;29197;44.788;10.366;2022-09-09T16:19:46;29.20;99.90
43607;DHT22;29197;44.788;10.366;2022-09-09T16:22:35;29.10;99.90
43607;DHT22;29197;44.788;10.366;2022-09-09T16:25:24;28.80;99.90
43607;DHT22;29197;44.788;10.366;2022-09-09T16:28:13;28.70;99.90
43607;DHT22;29197;44.788;10.366;2022-09-09T16:31:06;28.70;99.90
43607;DHT22;29197;44.788;10.366;2022-09-09T16:33:56;28.50;99.90
43607;DHT22;29197;44.788;10.366;2022-09-09T16:36:45;28.40;99.90
43607;DHT22;29197;44.788;10.366;2022-09-09T16:39:36;28.30;99.90
43607;DHT22;29197;44.788;10.366;2022-09-09T16:45:15;28.10;99.90
43607;DHT22;29197;44.788;10.366;2022-09-09T16:48:06;28.00;99.90
43607;DHT22;29197;44.788;10.366;2022-09-09T16:51:01;27.90;99.90
43607;DHT22;29197;44.788;10.366;2022-09-09T16:53:51;27.70;99.90
43607;DHT22;29197;44.788;10.366;2022-09-09T17:02:21;27.40;99.90
43607;DHT22;29197;44.788;10.366;2022-09-09T17:08:01;27.20;99.90
43607;DHT22;29197;44.788;10.366;2022-09-09T17:10:52;27.20;99.90
43607;DHT22;29197;44.788;10.366;2022-09-09T17:13:42;27.00;99.90
43607;DHT22;29197;44.788;10.366;2022-09-09T17:16:33;27.00;99.90
43607;DHT22;29197;44.788;10.366;2022-09-09T17:19:23;27.00;99.90
43607;DHT22;29197;44.788;10.366;2022-09-09T17:22:13;26.90;99.90
43607;DHT22;29197;44.788;10.366;2022-09-09T17:25:05;26.90;99.90
43607;DHT22;29197;44.788;10.366;2022-09-09T17:27:54;26.80;99.90
43607;DHT22;29197;44.788;10.366;2022-09-09T17:30:45;26.70;99.90
43607;DHT22;29197;44.788;10.366;2022-09-09T17:33:36;26.60;99.90
43607;DHT22;29197;44.788;10.366;2022-09-09T17:36:28;26.60;99.90
43607;DHT22;29197;44.788;10.366;2022-09-09T17:39:18;26.60;99.90
43607;DHT22;29197;44.788;10.366;2022-09-09T17:42:08;26.50;99.90
43607;DHT22;29197;44.788;10.366;2022-09-09T17:44:58;26.40;99.90
43607;DHT22;29197;44.788;10.366;2022-09-09T17:47:46;26.50;99.90
43607;DHT22;29197;44.788;10.366;2022-09-09T17:50:37;26.50;99.90
43607;DHT22;29197;44.788;10.366;2022-09-09T17:53:26;26.50;99.90
43607;DHT22;29197;44.788;10.366;2022-09-09T17:56:20;26.50;99.90
43607;DHT22;29197;44.788;10.366;2022-09-09T17:59:13;26.50;99.90
43607;DHT22;29197;44.788;10.366;2022-09-09T18:02:03;26.40;99.90
43607;DHT22;29197;44.788;10.366;2022-09-09T18:04:53;26.50;99.90
43607;DHT22;29197;44.788;10.366;2022-09-09T18:07:42;26.40;99.90
43607;DHT22;29197;44.788;10.366;2022-09-09T18:10:31;26.30;99.90
43607;DHT22;29197;44.788;10.366;2022-09-09T18:13:22;26.30;99.90
43607;DHT22;29197;44.788;10.366;2022-09-09T18:16:11;26.30;99.90
43607;DHT22;29197;44.788;10.366;2022-09-09T18:19:01;26.20;99.90
43607;DHT22;29197;44.788;10.366;2022-09-09T18:24:45;26.00;99.90
43607;DHT22;29197;44.788;10.366;2022-09-09T18:27:35;26.10;99.90
43607;DHT22;29197;44.788;10.366;2022-09-09T18:30:25;26.10;99.90
43607;DHT22;29197;44.788;10.366;2022-09-09T18:33:14;26.10;99.90
43607;DHT22;29197;44.788;10.366;2022-09-09T18:36:07;26.10;99.90
43607;DHT22;29197;44.788;10.366;2022-09-09T18:38:57;26.10;99.90
43607;DHT22;29197;44.788;10.366;2022-09-09T18:41:47;26.10;99.90
43607;DHT22;29197;44.788;10.366;2022-09-09T18:44:37;26.10;99.90
43607;DHT22;29197;44.788;10.366;2022-09-09T18:47:30;26.10;99.90
43607;DHT22;29197;44.788;10.366;2022-09-09T18:50:19;26.10;99.90
43607;DHT22;29197;44.788;10.366;2022-09-09T18:53:08;26.20;99.90
43607;DHT22;29197;44.788;10.366;2022-09-09T18:55:58;26.20;99.90
43607;DHT22;29197;44.788;10.366;2022-09-09T18:58:51;26.10;99.90
43607;DHT22;29197;44.788;10.366;2022-09-09T19:01:40;26.00;99.90
43607;DHT22;29197;44.788;10.366;2022-09-09T19:04:30;26.00;99.90
43607;DHT22;29197;44.788;10.366;2022-09-09T19:07:19;26.00;99.90
43607;DHT22;29197;44.788;10.366;2022-09-09T19:10:08;26.00;99.90
43607;DHT22;29197;44.788;10.366;2022-09-09T19:12:57;26.00;99.90
43607;DHT22;29197;44.788;10.366;2022-09-09T19:15:47;26.00;99.90
43607;DHT22;29197;44.788;10.366;2022-09-09T19:18:36;26.00;99.90
43607;DHT22;29197;44.788;10.366;2022-09-09T19:21:28;26.10;99.90
43607;DHT22;29197;44.788;10.366;2022-09-09T19:24:19;26.10;99.90
43607;DHT22;29197;44.788;10.366;2022-09-09T19:27:08;26.10;99.90
43607;DHT22;29197;44.788;10.366;2022-09-09T19:29:57;26.20;99.90
43607;DHT22;29197;44.788;10.366;2022-09-09T19:32:46;26.10;99.90
43607;DHT22;29197;44.788;10.366;2022-09-09T19:35:40;26.10;99.90
43607;DHT22;29197;44.788;10.366;2022-09-09T19:38:30;26.10;99.90
43607;DHT22;29197;44.788;10.366;2022-09-09T19:41:21;26.10;99.90
43607;DHT22;29197;44.788;10.366;2022-09-09T19:44:13;26.10;99.90
43607;DHT22;29197;44.788;10.366;2022-09-09T19:47:02;26.10;99.90
43607;DHT22;29197;44.788;10.366;2022-09-09T19:49:51;26.00;99.90
43607;DHT22;29197;44.788;10.366;2022-09-09T19:52:40;26.00;99.90
43607;DHT22;29197;44.788;10.366;2022-09-09T19:55:31;26.00;99.90